الصفحة الرئيسية
METAR-TAF:

METAR-TAF

مطار :

دكار, السنغال

مطار ليوبولد سيدار سنغور الدولي

دائرة عرض: 14-44N, خط طول: 017-30W, ارتفاع: 27 متر

مراقبة الطقس الحالي

تاريخ ووقت الإصدار 3ساعات و 2 دقيقة قبل الساعة 00:00UTC
ريح 4 عقدة من الشمال
درجة الحرارة 19°درجة مئوية
الرطوبة 94%
ضغط 1013 hPa
الرؤية: 8000 متر

METAR: GOOY 220000Z 36004KT 8000 NSC 19/18 Q1013

زمن: 03:02 (03:02 UTC)

توقعات

تاريخ ووقت الإصدار 3ساعات و 32 دقيقة قبل الساعة 23:30UTC
التوقعات صالحة من22 الساعة 00 UTC إلى 23 الساعة 06 UTC
ريح 12 عقدة من الشمال
الرؤية: 8000 متر

TAF: GOOY 212330Z 2200/2306 35012KT 8000 NSC

أرصاد الطقس والتوقعات من أكثر من 4000 مطار (تقارير الطقس للمطار METAR والتنبؤ بالطقس بالمطارTAF).

المحطات المتاحة هي النقط الصفراء والحمراء على الخريطة.

حرك المؤشر فوق النقطة لمعرفة اسم المحطة.

ثم انقر لمعرفة أرصاد وتوقعات الطقس.

لتغيير الخارطة: اضغط على الأزرار الخضراء مع رمز الصليب الأسود للتكبير. على الزر الأخضر مع شرطة للتصغير، أو على الأسهم الخضراء للخرائط المجاورة.


METAR-TAF: